sensor_id;sensor_type;location;lat;lon;timestamp;pressure;altitude;pressure_sealevel;temperature;humidity
30730;BME280;17476;48.458;7.928;2022-08-30T00:01:27;99999.50;;;21.88;61.30
30730;BME280;17476;48.458;7.928;2022-08-30T00:03:54;99995.03;;;21.94;61.50
30730;BME280;17476;48.458;7.928;2022-08-30T00:06:21;100008.47;;;21.99;61.36
30730;BME280;17476;48.458;7.928;2022-08-30T00:08:48;100006.97;;;22.03;61.17
30730;BME280;17476;48.458;7.928;2022-08-30T00:11:20;100004.31;;;22.03;61.55
30730;BME280;17476;48.458;7.928;2022-08-30T00:13:49;100009.38;;;22.04;61.62
30730;BME280;17476;48.458;7.928;2022-08-30T00:16:17;100007.28;;;22.06;61.67
30730;BME280;17476;48.458;7.928;2022-08-30T00:18:44;100012.38;;;22.08;61.10
30730;BME280;17476;48.458;7.928;2022-08-30T00:21:10;100007.28;;;22.06;60.92
30730;BME280;17476;48.458;7.928;2022-08-30T00:23:38;100007.53;;;22.05;61.02
30730;BME280;17476;48.458;7.928;2022-08-30T00:26:05;100001.28;;;21.99;60.77
30730;BME280;17476;48.458;7.928;2022-08-30T00:28:32;99999.13;;;21.96;60.33
30730;BME280;17476;48.458;7.928;2022-08-30T00:31:00;100004.69;;;21.95;60.72
30730;BME280;17476;48.458;7.928;2022-08-30T00:33:27;100009.16;;;21.94;60.10
30730;BME280;17476;48.458;7.928;2022-08-30T00:35:53;100012.31;;;21.91;59.75
30730;BME280;17476;48.458;7.928;2022-08-30T00:38:19;100019.75;;;21.89;60.29
30730;BME280;17476;48.458;7.928;2022-08-30T00:40:49;100018.94;;;21.89;59.96
30730;BME280;17476;48.458;7.928;2022-08-30T00:43:25;100014.22;;;21.67;60.05
30730;BME280;17476;48.458;7.928;2022-08-30T00:45:51;100017.03;;;21.49;61.29
30730;BME280;17476;48.458;7.928;2022-08-30T00:48:17;100014.13;;;21.39;61.94
30730;BME280;17476;48.458;7.928;2022-08-30T00:50:53;100007.88;;;21.45;62.04
30730;BME280;17476;48.458;7.928;2022-08-30T00:53:26;100023.00;;;20.97;65.68
30730;BME280;17476;48.458;7.928;2022-08-30T00:55:54;100024.97;;;20.49;68.07
30730;BME280;17476;48.458;7.928;2022-08-30T00:58:28;100028.13;;;20.57;66.96
30730;BME280;17476;48.458;7.928;2022-08-30T01:00:57;100032.44;;;20.70;66.36
30730;BME280;17476;48.458;7.928;2022-08-30T01:03:26;100024.59;;;20.75;66.52
30730;BME280;17476;48.458;7.928;2022-08-30T01:05:52;100027.50;;;20.85;65.91
30730;BME280;17476;48.458;7.928;2022-08-30T01:08:19;100029.59;;;20.95;66.30
30730;BME280;17476;48.458;7.928;2022-08-30T01:10:50;100029.81;;;21.05;65.39
30730;BME280;17476;48.458;7.928;2022-08-30T01:13:18;100031.56;;;21.11;65.64
30730;BME280;17476;48.458;7.928;2022-08-30T01:15:44;100031.94;;;21.15;65.06
30730;BME280;17476;48.458;7.928;2022-08-30T01:18:13;100029.03;;;21.16;65.48
30730;BME280;17476;48.458;7.928;2022-08-30T01:23:38;100029.28;;;21.15;65.54
30730;BME280;17476;48.458;7.928;2022-08-30T01:26:05;100034.22;;;21.11;65.47
30730;BME280;17476;48.458;7.928;2022-08-30T01:28:32;100031.56;;;21.11;65.83
30730;BME280;17476;48.458;7.928;2022-08-30T01:31:00;100031.69;;;21.16;65.55
30730;BME280;17476;48.458;7.928;2022-08-30T01:33:32;100028.81;;;21.18;65.21
30730;BME280;17476;48.458;7.928;2022-08-30T01:36:05;100026.63;;;21.15;65.36
30730;BME280;17476;48.458;7.928;2022-08-30T01:38:54;100026.63;;;21.15;65.42
30730;BME280;17476;48.458;7.928;2022-08-30T01:41:39;100024.75;;;21.15;64.53
30730;BME280;17476;48.458;7.928;2022-08-30T01:44:09;100021.84;;;20.93;66.00
30730;BME280;17476;48.458;7.928;2022-08-30T01:46:45;100034.09;;;20.94;65.88
30730;BME280;17476;48.458;7.928;2022-08-30T01:49:14;100027.50;;;20.97;65.51
30730;BME280;17476;48.458;7.928;2022-08-30T01:51:41;100028.88;;;20.99;65.56
30730;BME280;17476;48.458;7.928;2022-08-30T01:54:08;100026.47;;;20.98;65.62
30730;BME280;17476;48.458;7.928;2022-08-30T01:56:35;100019.53;;;20.97;65.79
30730;BME280;17476;48.458;7.928;2022-08-30T01:59:01;100013.19;;;20.98;65.61
30730;BME280;17476;48.458;7.928;2022-08-30T02:01:28;100020.44;;;20.91;65.79
30730;BME280;17476;48.458;7.928;2022-08-30T02:03:55;100013.13;;;20.63;67.44
30730;BME280;17476;48.458;7.928;2022-08-30T02:06:22;100016.34;;;20.53;67.28
30730;BME280;17476;48.458;7.928;2022-08-30T02:08:48;100019.81;;;20.54;67.08
30730;BME280;17476;48.458;7.928;2022-08-30T02:11:15;100022.38;;;20.60;67.27
30730;BME280;17476;48.458;7.928;2022-08-30T02:13:44;100016.34;;;20.65;67.27
30730;BME280;17476;48.458;7.928;2022-08-30T02:16:14;100014.88;;;20.69;67.05
30730;BME280;17476;48.458;7.928;2022-08-30T02:18:41;100019.81;;;20.65;67.36
30730;BME280;17476;48.458;7.928;2022-08-30T02:21:08;100017.97;;;20.54;67.69
30730;BME280;17476;48.458;7.928;2022-08-30T02:23:35;100015.97;;;20.50;67.54
30730;BME280;17476;48.458;7.928;2022-08-30T02:26:02;100016.19;;;20.48;68.31
30730;BME280;17476;48.458;7.928;2022-08-30T02:28:28;100016.78;;;20.50;68.19
30730;BME280;17476;48.458;7.928;2022-08-30T02:30:54;100018.19;;;20.53;68.26
30730;BME280;17476;48.458;7.928;2022-08-30T02:33:20;100020.38;;;20.56;68.19
30730;BME280;17476;48.458;7.928;2022-08-30T02:35:46;100012.19;;;20.57;68.29
30730;BME280;17476;48.458;7.928;2022-08-30T02:38:15;99995.19;;;20.58;68.03
30730;BME280;17476;48.458;7.928;2022-08-30T02:40:41;99999.50;;;20.59;68.21
30730;BME280;17476;48.458;7.928;2022-08-30T02:43:09;99996.00;;;20.59;68.00
30730;BME280;17476;48.458;7.928;2022-08-30T02:45:34;99998.22;;;20.62;67.45
30730;BME280;17476;48.458;7.928;2022-08-30T02:48:00;99995.78;;;20.60;67.30
30730;BME280;17476;48.458;7.928;2022-08-30T02:50:26;99998.66;;;20.59;67.02
30730;BME280;17476;48.458;7.928;2022-08-30T02:52:53;99993.00;;;20.55;66.97
30730;BME280;17476;48.458;7.928;2022-08-30T02:55:19;99990.78;;;20.52;66.80
30730;BME280;17476;48.458;7.928;2022-08-30T02:57:45;99998.97;;;20.51;66.83
30730;BME280;17476;48.458;7.928;2022-08-30T03:00:16;100001.31;;;20.47;67.35
30730;BME280;17476;48.458;7.928;2022-08-30T03:02:43;100009.28;;;20.47;66.82
30730;BME280;17476;48.458;7.928;2022-08-30T03:05:11;100004.81;;;20.41;67.25
30730;BME280;17476;48.458;7.928;2022-08-30T03:07:41;100002.84;;;20.36;67.37
30730;BME280;17476;48.458;7.928;2022-08-30T03:10:10;99998.66;;;20.29;67.40
30730;BME280;17476;48.458;7.928;2022-08-30T03:12:40;100003.91;;;20.17;67.67
30730;BME280;17476;48.458;7.928;2022-08-30T03:15:10;100003.13;;;19.98;69.08
30730;BME280;17476;48.458;7.928;2022-08-30T03:17:38;100002.94;;;20.00;68.95
30730;BME280;17476;48.458;7.928;2022-08-30T03:20:06;99995.78;;;20.00;68.95
30730;BME280;17476;48.458;7.928;2022-08-30T03:22:33;99993.28;;;19.69;70.27
30730;BME280;17476;48.458;7.928;2022-08-30T03:24:59;100000.72;;;19.17;72.72
30730;BME280;17476;48.458;7.928;2022-08-30T03:27:27;100004.31;;;18.79;74.90
30730;BME280;17476;48.458;7.928;2022-08-30T03:29:54;99995.22;;;18.93;73.98
30730;BME280;17476;48.458;7.928;2022-08-30T03:32:20;100002.31;;;18.99;73.49
30730;BME280;17476;48.458;7.928;2022-08-30T03:34:46;100012.59;;;19.14;72.80
30730;BME280;17476;48.458;7.928;2022-08-30T03:37:12;100005.56;;;18.76;76.09
30730;BME280;17476;48.458;7.928;2022-08-30T03:39:38;100011.28;;;18.73;75.76
30730;BME280;17476;48.458;7.928;2022-08-30T03:42:04;100007.84;;;18.98;74.77
30730;BME280;17476;48.458;7.928;2022-08-30T03:44:30;100014.59;;;19.19;73.33
30730;BME280;17476;48.458;7.928;2022-08-30T03:46:56;100004.81;;;19.38;72.89
30730;BME280;17476;48.458;7.928;2022-08-30T03:49:22;100017.41;;;19.42;72.24
30730;BME280;17476;48.458;7.928;2022-08-30T03:51:50;100024.06;;;19.51;71.73
30730;BME280;17476;48.458;7.928;2022-08-30T03:54:16;100022.19;;;19.58;71.85
30730;BME280;17476;48.458;7.928;2022-08-30T03:56:43;100027.44;;;19.65;71.51
30730;BME280;17476;48.458;7.928;2022-08-30T03:59:09;100024.53;;;19.67;71.14
30730;BME280;17476;48.458;7.928;2022-08-30T04:01:34;100021.25;;;19.46;71.69
30730;BME280;17476;48.458;7.928;2022-08-30T04:04:01;100022.56;;;19.37;71.90
30730;BME280;17476;48.458;7.928;2022-08-30T04:06:27;100017.63;;;19.41;71.97
30730;BME280;17476;48.458;7.928;2022-08-30T04:08:53;100015.97;;;19.46;71.58
30730;BME280;17476;48.458;7.928;2022-08-30T04:11:19;100004.47;;;19.52;71.15
30730;BME280;17476;48.458;7.928;2022-08-30T04:13:46;100004.00;;;19.55;71.31
30730;BME280;17476;48.458;7.928;2022-08-30T04:16:14;100013.59;;;19.56;71.15
30730;BME280;17476;48.458;7.928;2022-08-30T04:18:40;100012.63;;;19.51;71.11
30730;BME280;17476;48.458;7.928;2022-08-30T04:21:06;100013.44;;;19.33;72.47
30730;BME280;17476;48.458;7.928;2022-08-30T04:23:32;100020.28;;;18.97;74.73
30730;BME280;17476;48.458;7.928;2022-08-30T04:25:58;100022.53;;;18.94;74.39
30730;BME280;17476;48.458;7.928;2022-08-30T04:28:24;100026.53;;;18.40;77.74
30730;BME280;17476;48.458;7.928;2022-08-30T04:30:49;100019.38;;;18.09;80.25
30730;BME280;17476;48.458;7.928;2022-08-30T04:33:16;100012.47;;;18.39;77.88
30730;BME280;17476;48.458;7.928;2022-08-30T04:35:47;100020.88;;;18.68;76.18
30730;BME280;17476;48.458;7.928;2022-08-30T04:38:15;100022.38;;;18.89;74.86
30730;BME280;17476;48.458;7.928;2022-08-30T04:40:43;100020.22;;;19.04;74.18
30730;BME280;17476;48.458;7.928;2022-08-30T04:43:10;100015.00;;;19.16;73.85
30730;BME280;17476;48.458;7.928;2022-08-30T04:45:39;100021.28;;;19.21;73.49
30730;BME280;17476;48.458;7.928;2022-08-30T04:48:06;100023.53;;;19.24;72.99
30730;BME280;17476;48.458;7.928;2022-08-30T04:50:32;100030.22;;;19.27;72.69
30730;BME280;17476;48.458;7.928;2022-08-30T04:52:58;100018.56;;;19.28;72.95
30730;BME280;17476;48.458;7.928;2022-08-30T04:55:24;100022.41;;;19.32;72.58
30730;BME280;17476;48.458;7.928;2022-08-30T04:57:51;100024.47;;;19.30;72.42
30730;BME280;17476;48.458;7.928;2022-08-30T05:00:18;100021.81;;;19.30;72.55
30730;BME280;17476;48.458;7.928;2022-08-30T05:02:48;100034.66;;;19.33;73.11
30730;BME280;17476;48.458;7.928;2022-08-30T05:05:14;100034.81;;;19.38;72.96
30730;BME280;17476;48.458;7.928;2022-08-30T05:07:58;100035.97;;;19.42;72.84
30730;BME280;17476;48.458;7.928;2022-08-30T05:10:25;100037.97;;;19.47;72.17
30730;BME280;17476;48.458;7.928;2022-08-30T05:12:54;100034.06;;;19.49;72.46
30730;BME280;17476;48.458;7.928;2022-08-30T05:15:20;100040.78;;;19.52;72.79
30730;BME280;17476;48.458;7.928;2022-08-30T05:17:47;100039.81;;;19.46;73.21
30730;BME280;17476;48.458;7.928;2022-08-30T05:20:13;100043.13;;;19.42;73.30
30730;BME280;17476;48.458;7.928;2022-08-30T05:22:42;100051.31;;;19.40;73.50
30730;BME280;17476;48.458;7.928;2022-08-30T05:25:26;100048.94;;;19.50;72.74
30730;BME280;17476;48.458;7.928;2022-08-30T05:27:53;100039.13;;;19.57;72.36
30730;BME280;17476;48.458;7.928;2022-08-30T05:30:21;100039.50;;;19.61;72.49
30730;BME280;17476;48.458;7.928;2022-08-30T05:32:48;100042.66;;;19.70;72.10
30730;BME280;17476;48.458;7.928;2022-08-30T05:35:16;100039.53;;;19.54;72.82
30730;BME280;17476;48.458;7.928;2022-08-30T05:37:42;100039.97;;;19.58;72.66
30730;BME280;17476;48.458;7.928;2022-08-30T05:40:09;100045.72;;;19.48;73.34
30730;BME280;17476;48.458;7.928;2022-08-30T05:42:36;100048.72;;;19.58;73.04
30730;BME280;17476;48.458;7.928;2022-08-30T05:45:04;100047.16;;;19.69;72.66
30730;BME280;17476;48.458;7.928;2022-08-30T05:47:30;100049.69;;;19.82;71.97
30730;BME280;17476;48.458;7.928;2022-08-30T05:49:56;100056.09;;;19.93;71.86
30730;BME280;17476;48.458;7.928;2022-08-30T05:52:22;100049.91;;;19.99;72.15
30730;BME280;17476;48.458;7.928;2022-08-30T05:54:54;100047.59;;;20.03;71.65
30730;BME280;17476;48.458;7.928;2022-08-30T05:57:24;100057.72;;;20.12;71.53
30730;BME280;17476;48.458;7.928;2022-08-30T05:59:50;100046.56;;;20.22;71.09
30730;BME280;17476;48.458;7.928;2022-08-30T06:02:16;100049.69;;;20.31;72.03
30730;BME280;17476;48.458;7.928;2022-08-30T06:04:42;100050.44;;;20.38;70.82
30730;BME280;17476;48.458;7.928;2022-08-30T06:07:08;100050.41;;;20.56;70.36
30730;BME280;17476;48.458;7.928;2022-08-30T06:09:34;100044.91;;;20.69;70.72
30730;BME280;17476;48.458;7.928;2022-08-30T06:12:00;100046.19;;;20.67;70.83
30730;BME280;17476;48.458;7.928;2022-08-30T06:14:26;100051.00;;;20.58;71.57
30730;BME280;17476;48.458;7.928;2022-08-30T06:16:52;100039.56;;;20.58;70.79
30730;BME280;17476;48.458;7.928;2022-08-30T06:19:18;100053.34;;;20.78;69.74
30730;BME280;17476;48.458;7.928;2022-08-30T06:21:48;100049.59;;;20.97;69.02
30730;BME280;17476;48.458;7.928;2022-08-30T06:24:15;100048.81;;;21.09;68.37
30730;BME280;17476;48.458;7.928;2022-08-30T06:26:45;100051.97;;;21.29;67.37
30730;BME280;17476;48.458;7.928;2022-08-30T06:29:15;100053.13;;;21.45;66.51
30730;BME280;17476;48.458;7.928;2022-08-30T06:31:41;100057.16;;;21.59;64.83
30730;BME280;17476;48.458;7.928;2022-08-30T06:34:08;100061.44;;;21.72;64.26
30730;BME280;17476;48.458;7.928;2022-08-30T06:36:34;100062.00;;;21.86;64.10
30730;BME280;17476;48.458;7.928;2022-08-30T06:39:02;100063.84;;;21.97;63.01
30730;BME280;17476;48.458;7.928;2022-08-30T06:41:31;100069.75;;;22.11;61.85
30730;BME280;17476;48.458;7.928;2022-08-30T06:43:59;100067.03;;;22.22;61.83
30730;BME280;17476;48.458;7.928;2022-08-30T06:46:30;100063.50;;;22.33;61.17
30730;BME280;17476;48.458;7.928;2022-08-30T06:48:57;100066.13;;;22.45;60.65
30730;BME280;17476;48.458;7.928;2022-08-30T06:51:33;100066.00;;;22.52;60.88
30730;BME280;17476;48.458;7.928;2022-08-30T06:54:00;100072.53;;;22.61;59.72
30730;BME280;17476;48.458;7.928;2022-08-30T06:56:26;100069.16;;;22.66;60.06
30730;BME280;17476;48.458;7.928;2022-08-30T06:58:52;100069.97;;;22.66;60.48
30730;BME280;17476;48.458;7.928;2022-08-30T07:01:23;100064.84;;;22.76;59.86
30730;BME280;17476;48.458;7.928;2022-08-30T07:03:50;100065.38;;;22.90;59.72
30730;BME280;17476;48.458;7.928;2022-08-30T07:06:17;100069.50;;;22.98;59.65
30730;BME280;17476;48.458;7.928;2022-08-30T07:08:44;100068.69;;;23.14;59.07
30730;BME280;17476;48.458;7.928;2022-08-30T07:11:10;100063.91;;;23.16;56.38
30730;BME280;17476;48.458;7.928;2022-08-30T07:13:37;100067.47;;;23.22;58.63
30730;BME280;17476;48.458;7.928;2022-08-30T07:16:11;100058.69;;;23.43;57.34
30730;BME280;17476;48.458;7.928;2022-08-30T07:18:38;100061.47;;;23.65;57.50
30730;BME280;17476;48.458;7.928;2022-08-30T07:21:19;100065.94;;;23.81;57.15
30730;BME280;17476;48.458;7.928;2022-08-30T07:23:46;100047.41;;;23.96;55.18
30730;BME280;17476;48.458;7.928;2022-08-30T07:26:21;100058.59;;;24.15;54.75
30730;BME280;17476;48.458;7.928;2022-08-30T07:28:48;100056.50;;;24.39;53.67
30730;BME280;17476;48.458;7.928;2022-08-30T07:31:16;100061.28;;;24.64;54.81
30730;BME280;17476;48.458;7.928;2022-08-30T07:33:42;100061.50;;;24.90;54.08
30730;BME280;17476;48.458;7.928;2022-08-30T07:36:09;100065.06;;;25.27;52.79
30730;BME280;17476;48.458;7.928;2022-08-30T07:38:35;100057.97;;;25.48;52.10
30730;BME280;17476;48.458;7.928;2022-08-30T07:41:02;100048.47;;;25.73;51.58
30730;BME280;17476;48.458;7.928;2022-08-30T07:43:29;100050.19;;;25.99;51.38
30730;BME280;17476;48.458;7.928;2022-08-30T07:46:04;100055.59;;;26.14;49.80
30730;BME280;17476;48.458;7.928;2022-08-30T07:48:30;100056.78;;;26.44;49.22
30730;BME280;17476;48.458;7.928;2022-08-30T07:50:56;100054.66;;;26.82;48.39
30730;BME280;17476;48.458;7.928;2022-08-30T07:53:22;100052.00;;;27.07;47.78
30730;BME280;17476;48.458;7.928;2022-08-30T07:55:48;100049.81;;;27.35;47.44
30730;BME280;17476;48.458;7.928;2022-08-30T07:58:14;100048.44;;;27.58;45.00
30730;BME280;17476;48.458;7.928;2022-08-30T08:00:40;100055.13;;;27.65;44.58
30730;BME280;17476;48.458;7.928;2022-08-30T08:03:07;100054.59;;;27.79;45.83
30730;BME280;17476;48.458;7.928;2022-08-30T08:05:39;100048.56;;;27.97;46.16
30730;BME280;17476;48.458;7.928;2022-08-30T08:08:05;100057.81;;;28.30;45.02
30730;BME280;17476;48.458;7.928;2022-08-30T08:10:32;100049.94;;;28.49;44.21
30730;BME280;17476;48.458;7.928;2022-08-30T08:12:58;100056.47;;;28.77;44.19
30730;BME280;17476;48.458;7.928;2022-08-30T08:15:26;100051.75;;;28.98;43.28
30730;BME280;17476;48.458;7.928;2022-08-30T08:17:52;100049.13;;;28.93;43.17
30730;BME280;17476;48.458;7.928;2022-08-30T08:20:21;100051.88;;;29.12;43.35
30730;BME280;17476;48.458;7.928;2022-08-30T08:22:47;100054.13;;;29.33;43.23
30730;BME280;17476;48.458;7.928;2022-08-30T08:25:13;100050.31;;;29.63;42.41
30730;BME280;17476;48.458;7.928;2022-08-30T08:27:40;100050.81;;;29.89;42.11
30730;BME280;17476;48.458;7.928;2022-08-30T08:30:07;100048.56;;;29.97;41.61
30730;BME280;17476;48.458;7.928;2022-08-30T08:32:33;100041.47;;;30.25;41.41
30730;BME280;17476;48.458;7.928;2022-08-30T08:34:58;100040.19;;;30.55;41.29
30730;BME280;17476;48.458;7.928;2022-08-30T08:37:24;100036.97;;;30.90;40.61
30730;BME280;17476;48.458;7.928;2022-08-30T08:39:52;100030.16;;;31.25;39.59
30730;BME280;17476;48.458;7.928;2022-08-30T08:45:14;100026.09;;;32.19;37.43
30730;BME280;17476;48.458;7.928;2022-08-30T08:50:24;100037.97;;;32.68;36.85
30730;BME280;17476;48.458;7.928;2022-08-30T08:53:14;100031.28;;;32.88;36.62
30730;BME280;17476;48.458;7.928;2022-08-30T08:56:03;100026.78;;;33.14;36.05
30730;BME280;17476;48.458;7.928;2022-08-30T08:58:45;100027.94;;;33.22;35.78
30730;BME280;17476;48.458;7.928;2022-08-30T09:01:14;100027.81;;;33.36;33.49
30730;BME280;17476;48.458;7.928;2022-08-30T09:03:41;100030.06;;;33.34;34.99
30730;BME280;17476;48.458;7.928;2022-08-30T09:08:47;100011.59;;;33.93;34.33
30730;BME280;17476;48.458;7.928;2022-08-30T09:11:22;100012.88;;;34.04;33.96
30730;BME280;17476;48.458;7.928;2022-08-30T09:13:50;100012.91;;;34.21;33.85
30730;BME280;17476;48.458;7.928;2022-08-30T09:19:11;100010.19;;;34.56;32.90
30730;BME280;17476;48.458;7.928;2022-08-30T09:21:37;100003.69;;;34.87;32.71
30730;BME280;17476;48.458;7.928;2022-08-30T09:24:04;99998.41;;;34.99;32.07
30730;BME280;17476;48.458;7.928;2022-08-30T09:26:35;99996.00;;;35.06;32.08
30730;BME280;17476;48.458;7.928;2022-08-30T09:29:03;100000.19;;;35.04;32.34
30730;BME280;17476;48.458;7.928;2022-08-30T09:31:48;99996.34;;;34.87;32.82
30730;BME280;17476;48.458;7.928;2022-08-30T09:34:20;99989.81;;;34.97;32.82
30730;BME280;17476;48.458;7.928;2022-08-30T09:36:50;99990.13;;;35.34;32.06
30730;BME280;17476;48.458;7.928;2022-08-30T09:39:29;99978.31;;;35.29;31.76
30730;BME280;17476;48.458;7.928;2022-08-30T09:42:25;99980.19;;;35.38;31.04
30730;BME280;17476;48.458;7.928;2022-08-30T09:44:53;99976.91;;;35.53;31.61
30730;BME280;17476;48.458;7.928;2022-08-30T09:47:38;99970.63;;;35.82;32.30
30730;BME280;17476;48.458;7.928;2022-08-30T09:50:17;99969.56;;;36.16;31.80
30730;BME280;17476;48.458;7.928;2022-08-30T09:53:15;99968.16;;;36.52;30.98
30730;BME280;17476;48.458;7.928;2022-08-30T09:56:06;99963.53;;;36.31;31.19
30730;BME280;17476;48.458;7.928;2022-08-30T09:59:06;99958.94;;;36.56;31.04
30730;BME280;17476;48.458;7.928;2022-08-30T10:02:03;99953.09;;;36.79;30.87
30730;BME280;17476;48.458;7.928;2022-08-30T10:04:56;99949.84;;;36.98;30.77
30730;BME280;17476;48.458;7.928;2022-08-30T10:10:19;99949.97;;;37.50;29.93
30730;BME280;17476;48.458;7.928;2022-08-30T10:15:37;99951.22;;;37.04;30.25
30730;BME280;17476;48.458;7.928;2022-08-30T10:18:34;99949.16;;;36.88;30.29
30730;BME280;17476;48.458;7.928;2022-08-30T10:21:46;99947.84;;;36.61;30.50
30730;BME280;17476;48.458;7.928;2022-08-30T10:24:18;99954.44;;;36.60;31.04
30730;BME280;17476;48.458;7.928;2022-08-30T10:26:58;99951.34;;;36.50;31.30
30730;BME280;17476;48.458;7.928;2022-08-30T10:32:21;99945.06;;;35.74;31.52
30730;BME280;17476;48.458;7.928;2022-08-30T10:35:08;99952.00;;;35.42;32.06
30730;BME280;17476;48.458;7.928;2022-08-30T10:38:01;99951.94;;;35.21;32.66
30730;BME280;17476;48.458;7.928;2022-08-30T10:40:35;99948.56;;;35.24;32.31
30730;BME280;17476;48.458;7.928;2022-08-30T10:43:41;99946.47;;;34.92;33.11
30730;BME280;17476;48.458;7.928;2022-08-30T10:49:08;99945.28;;;35.10;33.21
30730;BME280;17476;48.458;7.928;2022-08-30T10:55:14;99942.44;;;35.36;32.98
30730;BME280;17476;48.458;7.928;2022-08-30T10:57:40;99944.16;;;35.70;32.44
30730;BME280;17476;48.458;7.928;2022-08-30T11:00:09;99943.09;;;36.04;31.94
30730;BME280;17476;48.458;7.928;2022-08-30T11:09:05;99947.09;;;37.59;30.11
30730;BME280;17476;48.458;7.928;2022-08-30T11:14:31;99948.94;;;38.35;28.78
30730;BME280;17476;48.458;7.928;2022-08-30T11:16:59;99940.19;;;38.61;28.84
30730;BME280;17476;48.458;7.928;2022-08-30T11:19:36;99938.44;;;38.37;28.08
30730;BME280;17476;48.458;7.928;2022-08-30T11:22:34;99948.50;;;38.21;28.69
30730;BME280;17476;48.458;7.928;2022-08-30T11:25:15;99936.31;;;38.46;28.77
30730;BME280;17476;48.458;7.928;2022-08-30T11:33:03;99935.63;;;38.65;27.61
30730;BME280;17476;48.458;7.928;2022-08-30T11:35:51;99929.22;;;38.73;27.99
30730;BME280;17476;48.458;7.928;2022-08-30T11:52:17;99917.63;;;39.82;26.10
30730;BME280;17476;48.458;7.928;2022-08-30T11:59:08;99900.59;;;40.31;26.80
30730;BME280;17476;48.458;7.928;2022-08-30T12:07:06;99895.69;;;40.21;26.23
30730;BME280;17476;48.458;7.928;2022-08-30T12:14:55;99883.81;;;40.36;26.09
30730;BME280;17476;48.458;7.928;2022-08-30T12:20:45;99882.50;;;40.72;25.83
30730;BME280;17476;48.458;7.928;2022-08-30T12:25:46;99878.34;;;40.59;26.08
30730;BME280;17476;48.458;7.928;2022-08-30T12:28:22;99869.28;;;40.81;25.10
30730;BME280;17476;48.458;7.928;2022-08-30T12:30:49;99872.44;;;41.33;25.00
30730;BME280;17476;48.458;7.928;2022-08-30T12:33:33;99872.00;;;41.64;25.19
30730;BME280;17476;48.458;7.928;2022-08-30T12:35:59;99871.84;;;41.80;24.79
30730;BME280;17476;48.458;7.928;2022-08-30T12:38:27;99856.16;;;41.81;24.46
30730;BME280;17476;48.458;7.928;2022-08-30T12:41:00;99857.75;;;41.85;24.30
30730;BME280;17476;48.458;7.928;2022-08-30T12:43:38;99858.19;;;41.57;25.35
30730;BME280;17476;48.458;7.928;2022-08-30T12:46:09;99851.44;;;41.81;24.81
30730;BME280;17476;48.458;7.928;2022-08-30T12:48:37;99849.47;;;41.48;22.31
30730;BME280;17476;48.458;7.928;2022-08-30T12:51:05;99839.31;;;41.86;24.49
30730;BME280;17476;48.458;7.928;2022-08-30T12:53:40;99840.81;;;41.80;24.26
30730;BME280;17476;48.458;7.928;2022-08-30T12:56:13;99846.47;;;41.60;24.92
30730;BME280;17476;48.458;7.928;2022-08-30T12:58:45;99832.78;;;41.64;24.50
30730;BME280;17476;48.458;7.928;2022-08-30T13:01:25;99838.94;;;41.54;24.96
30730;BME280;17476;48.458;7.928;2022-08-30T13:04:26;99834.78;;;41.33;24.99
30730;BME280;17476;48.458;7.928;2022-08-30T13:06:58;99836.41;;;41.11;25.36
30730;BME280;17476;48.458;7.928;2022-08-30T13:09:38;99824.09;;;40.98;25.57
30730;BME280;17476;48.458;7.928;2022-08-30T13:12:22;99826.03;;;40.71;25.39
30730;BME280;17476;48.458;7.928;2022-08-30T13:14:49;99827.25;;;40.47;25.64
30730;BME280;17476;48.458;7.928;2022-08-30T13:22:39;99801.47;;;40.52;25.99
30730;BME280;17476;48.458;7.928;2022-08-30T13:25:08;99805.41;;;40.54;25.87
30730;BME280;17476;48.458;7.928;2022-08-30T13:27:36;99790.13;;;40.53;24.76
30730;BME280;17476;48.458;7.928;2022-08-30T13:30:13;99789.97;;;40.69;24.37
30730;BME280;17476;48.458;7.928;2022-08-30T13:32:41;99789.13;;;40.65;24.84
30730;BME280;17476;48.458;7.928;2022-08-30T13:35:09;99777.75;;;40.40;25.21
30730;BME280;17476;48.458;7.928;2022-08-30T13:37:36;99781.78;;;40.46;25.40
30730;BME280;17476;48.458;7.928;2022-08-30T13:40:09;99770.75;;;40.69;24.79
30730;BME280;17476;48.458;7.928;2022-08-30T13:42:36;99772.53;;;39.85;25.35
30730;BME280;17476;48.458;7.928;2022-08-30T13:45:03;99770.44;;;39.79;25.33
30730;BME280;17476;48.458;7.928;2022-08-30T13:47:29;99758.22;;;39.73;25.50
30730;BME280;17476;48.458;7.928;2022-08-30T13:49:56;99752.44;;;39.78;25.72
30730;BME280;17476;48.458;7.928;2022-08-30T13:52:22;99753.81;;;39.49;25.79
30730;BME280;17476;48.458;7.928;2022-08-30T13:54:51;99750.03;;;39.34;25.93
30730;BME280;17476;48.458;7.928;2022-08-30T13:57:29;99755.63;;;38.83;25.78
30730;BME280;17476;48.458;7.928;2022-08-30T13:59:55;99745.00;;;39.17;26.23
30730;BME280;17476;48.458;7.928;2022-08-30T14:02:21;99747.56;;;39.29;25.81
30730;BME280;17476;48.458;7.928;2022-08-30T14:04:47;99753.13;;;39.33;25.40
30730;BME280;17476;48.458;7.928;2022-08-30T14:07:13;99747.13;;;39.66;24.92
30730;BME280;17476;48.458;7.928;2022-08-30T14:09:39;99748.09;;;40.00;25.08
30730;BME280;17476;48.458;7.928;2022-08-30T14:12:06;99748.09;;;40.23;24.37
30730;BME280;17476;48.458;7.928;2022-08-30T14:14:32;99749.94;;;40.38;24.47
30730;BME280;17476;48.458;7.928;2022-08-30T14:16:57;99741.91;;;40.26;24.62
30730;BME280;17476;48.458;7.928;2022-08-30T14:19:23;99745.78;;;40.48;23.69
30730;BME280;17476;48.458;7.928;2022-08-30T14:21:49;99744.47;;;40.42;24.23
30730;BME280;17476;48.458;7.928;2022-08-30T14:24:16;99749.28;;;39.99;25.19
30730;BME280;17476;48.458;7.928;2022-08-30T14:26:46;99742.63;;;40.00;25.10
30730;BME280;17476;48.458;7.928;2022-08-30T14:29:18;99733.84;;;39.68;25.14
30730;BME280;17476;48.458;7.928;2022-08-30T14:31:45;99733.53;;;39.50;23.97